Time;durP1;ratioP1;P1;durP2;ratioP2;P2;SDS_P1;SDS_P2;PMS_P1;PMS_P2;Temp;Humidity;BMP_temperature;BMP_pressure;BME280_temperature;BME280_humidity;BME280_pressure;Samples;Min_cycle;Max_cycle;Signal;HPM_P1;HPM_P2
2024/02/17 00:01:43;;;;;;;105.60;53.10;;;;;;;-128.00;-1.00;-1.00;102450;1259;1004187;-80
2024/02/17 00:04:10;;;;;;;110.30;54.70;;;;;;;-128.00;-1.00;-1.00;102399;1260;1004027;-87
2024/02/17 00:06:36;;;;;;;113.10;57.00;;;;;;;-128.00;-1.00;-1.00;102451;1259;1004358;-80
2024/02/17 00:09:03;;;;;;;101.20;50.10;;;;;;;-128.00;-1.00;-1.00;102384;1260;1004999;-87
2024/02/17 00:11:30;;;;;;;101.30;48.60;;;;;;;-128.00;-1.00;-1.00;102343;1259;1004485;-86
2024/02/17 00:13:56;;;;;;;100.60;51.90;;;;;;;-128.00;-1.00;-1.00;102487;1259;1004460;-80
2024/02/17 00:16:23;;;;;;;93.90;47.10;;;;;;;-128.00;-1.00;-1.00;102452;1259;1004155;-86
2024/02/17 00:18:49;;;;;;;96.70;48.00;;;;;;;-128.00;-1.00;-1.00;102484;1259;1005384;-80
2024/02/17 00:21:16;;;;;;;80.60;42.90;;;;;;;-128.00;-1.00;-1.00;102494;1259;1004881;-87
2024/02/17 00:23:43;;;;;;;79.40;42.20;;;;;;;-128.00;-1.00;-1.00;102364;1259;1005669;-87
2024/02/17 00:26:09;;;;;;;93.00;48.70;;;;;;;-128.00;-1.00;-1.00;102435;1259;1004226;-87
2024/02/17 00:28:36;;;;;;;86.00;45.20;;;;;;;-128.00;-1.00;-1.00;102419;1260;1004486;-80
2024/02/17 00:31:03;;;;;;;87.60;46.20;;;;;;;-128.00;-1.00;-1.00;102400;1259;1004920;-87
2024/02/17 00:33:29;;;;;;;75.90;40.20;;;;;;;-128.00;-1.00;-1.00;102425;1259;1003949;-80
2024/02/17 00:35:56;;;;;;;83.10;41.70;;;;;;;-128.00;-1.00;-1.00;102353;1259;1004655;-87
2024/02/17 00:38:22;;;;;;;95.80;44.30;;;;;;;-128.00;-1.00;-1.00;102327;1259;1004711;-80
2024/02/17 00:40:49;;;;;;;74.80;39.50;;;;;;;-128.00;-1.00;-1.00;102376;1259;1004237;-86
2024/02/17 00:43:16;;;;;;;78.80;41.50;;;;;;;-128.00;-1.00;-1.00;102448;1264;1004304;-80
2024/02/17 00:45:48;;;;;;;84.00;45.30;;;;;;;-128.00;-1.00;-1.00;102395;1260;1004242;-80
2024/02/17 00:48:15;;;;;;;87.20;44.20;;;;;;;-128.00;-1.00;-1.00;102621;1264;1059011;-80
2024/02/17 00:50:42;;;;;;;87.60;46.10;;;;;;;-128.00;-1.00;-1.00;102928;1259;1003709;-85
2024/02/17 00:53:08;;;;;;;86.90;45.40;;;;;;;-128.00;-1.00;-1.00;102376;1259;1004311;-86
2024/02/17 00:55:35;;;;;;;76.20;41.20;;;;;;;-128.00;-1.00;-1.00;102470;1260;1005737;-80
2024/02/17 00:58:02;;;;;;;74.10;38.30;;;;;;;-128.00;-1.00;-1.00;102448;1259;1005371;-86
2024/02/17 01:00:29;;;;;;;74.90;39.70;;;;;;;-128.00;-1.00;-1.00;102371;1259;1005261;-86
2024/02/17 01:02:55;;;;;;;77.60;40.00;;;;;;;-128.00;-1.00;-1.00;102477;1263;1007138;-86
2024/02/17 01:05:22;;;;;;;74.30;36.50;;;;;;;-128.00;-1.00;-1.00;102427;1260;1004455;-86
2024/02/17 01:07:48;;;;;;;78.30;41.20;;;;;;;-128.00;-1.00;-1.00;102438;1259;1004491;-79
2024/02/17 01:10:15;;;;;;;80.20;40.10;;;;;;;-128.00;-1.00;-1.00;102351;1259;1003841;-79
2024/02/17 01:12:42;;;;;;;77.00;40.80;;;;;;;-128.00;-1.00;-1.00;102492;1259;1005443;-86
2024/02/17 01:15:09;;;;;;;81.90;40.20;;;;;;;-128.00;-1.00;-1.00;102456;1260;1005138;-80
2024/02/17 01:17:36;;;;;;;73.90;39.20;;;;;;;-128.00;-1.00;-1.00;101927;1265;1004289;-79
2024/02/17 01:20:03;;;;;;;77.20;41.60;;;;;;;-128.00;-1.00;-1.00;102391;1259;1005102;-80
2024/02/17 01:22:29;;;;;;;92.10;47.00;;;;;;;-128.00;-1.00;-1.00;102412;1259;1003809;-80
2024/02/17 01:24:56;;;;;;;83.90;44.10;;;;;;;-128.00;-1.00;-1.00;102407;1259;1004619;-86
2024/02/17 01:27:23;;;;;;;71.30;38.20;;;;;;;-128.00;-1.00;-1.00;102353;1259;1004895;-80
2024/02/17 01:29:50;;;;;;;69.30;38.40;;;;;;;-128.00;-1.00;-1.00;102428;1263;1005391;-86
2024/02/17 01:32:16;;;;;;;67.60;37.40;;;;;;;-128.00;-1.00;-1.00;102455;1259;1004856;-86
2024/02/17 01:34:43;;;;;;;69.30;35.00;;;;;;;-128.00;-1.00;-1.00;102419;1259;1004343;-87
2024/02/17 01:37:09;;;;;;;64.70;33.30;;;;;;;-128.00;-1.00;-1.00;102445;1260;1005082;-80
2024/02/17 01:39:36;;;;;;;61.80;31.90;;;;;;;-128.00;-1.00;-1.00;102395;1259;1004711;-80
2024/02/17 01:42:03;;;;;;;65.60;37.20;;;;;;;-128.00;-1.00;-1.00;102495;1259;1004317;-80
2024/02/17 01:44:29;;;;;;;59.30;31.50;;;;;;;-128.00;-1.00;-1.00;102350;1259;1004345;-86
2024/02/17 01:46:56;;;;;;;59.80;32.30;;;;;;;-128.00;-1.00;-1.00;102438;1259;1003770;-79
2024/02/17 01:49:23;;;;;;;54.70;30.80;;;;;;;-128.00;-1.00;-1.00;102326;1267;1003466;-80
2024/02/17 01:51:49;;;;;;;62.10;31.90;;;;;;;-128.00;-1.00;-1.00;102415;1262;1004634;-86
2024/02/17 01:54:16;;;;;;;59.40;34.00;;;;;;;-128.00;-1.00;-1.00;102513;1259;1004554;-87
2024/02/17 01:56:42;;;;;;;83.20;43.90;;;;;;;-128.00;-1.00;-1.00;102560;1259;1005163;-79
2024/02/17 01:59:09;;;;;;;74.80;39.40;;;;;;;-128.00;-1.00;-1.00;102391;1259;1004364;-85
2024/02/17 02:01:35;;;;;;;85.70;43.90;;;;;;;-128.00;-1.00;-1.00;102532;1260;1004346;-79
2024/02/17 02:04:02;;;;;;;73.00;39.20;;;;;;;-128.00;-1.00;-1.00;102224;1259;1004502;-79
2024/02/17 02:06:30;;;;;;;71.20;35.40;;;;;;;-128.00;-1.00;-1.00;102393;1259;1005204;-86
2024/02/17 02:08:56;;;;;;;68.70;32.20;;;;;;;-128.00;-1.00;-1.00;102502;1259;1005276;-79
2024/02/17 02:11:23;;;;;;;63.00;31.90;;;;;;;-128.00;-1.00;-1.00;102461;1265;1004327;-80
2024/02/17 02:13:49;;;;;;;54.20;27.50;;;;;;;-128.00;-1.00;-1.00;102462;1265;1005029;-86
2024/02/17 02:16:16;;;;;;;50.90;28.20;;;;;;;-128.00;-1.00;-1.00;102517;1261;1004206;-86
2024/02/17 02:18:42;;;;;;;51.50;28.00;;;;;;;-128.00;-1.00;-1.00;102549;1259;1004387;-86
2024/02/17 02:21:09;;;;;;;47.90;26.70;;;;;;;-128.00;-1.00;-1.00;102517;1259;1004809;-86
2024/02/17 02:23:35;;;;;;;51.50;27.30;;;;;;;-128.00;-1.00;-1.00;102493;1263;1004505;-79
2024/02/17 02:26:02;;;;;;;49.40;25.10;;;;;;;-128.00;-1.00;-1.00;102382;1259;1004813;-86
2024/02/17 02:28:30;;;;;;;54.20;27.90;;;;;;;-128.00;-1.00;-1.00;102556;1260;1004309;-86
2024/02/17 02:30:57;;;;;;;54.30;28.30;;;;;;;-128.00;-1.00;-1.00;102565;1259;1004331;-86
2024/02/17 02:33:24;;;;;;;52.80;27.20;;;;;;;-128.00;-1.00;-1.00;102561;1259;1004648;-86
2024/02/17 02:35:50;;;;;;;51.90;27.50;;;;;;;-128.00;-1.00;-1.00;102459;1259;1004918;-86
2024/02/17 02:38:17;;;;;;;49.60;23.00;;;;;;;-128.00;-1.00;-1.00;102411;1265;1004900;-86
2024/02/17 02:40:43;;;;;;;47.00;24.40;;;;;;;-128.00;-1.00;-1.00;102554;1259;1004570;-80
2024/02/17 02:43:10;;;;;;;49.80;24.30;;;;;;;-128.00;-1.00;-1.00;102529;1263;1004958;-80
2024/02/17 02:45:37;;;;;;;54.20;29.60;;;;;;;-128.00;-1.00;-1.00;102087;1259;1005290;-86
2024/02/17 02:48:04;;;;;;;69.80;35.10;;;;;;;-128.00;-1.00;-1.00;102403;1265;1004686;-83
2024/02/17 02:50:30;;;;;;;63.50;34.60;;;;;;;-128.00;-1.00;-1.00;102493;1259;1003981;-87
2024/02/17 02:52:57;;;;;;;57.80;30.20;;;;;;;-128.00;-1.00;-1.00;102535;1259;1005655;-86
2024/02/17 02:55:23;;;;;;;47.50;23.90;;;;;;;-128.00;-1.00;-1.00;102531;1259;1004270;-79
2024/02/17 02:57:50;;;;;;;49.30;27.00;;;;;;;-128.00;-1.00;-1.00;102575;1259;1004460;-87
2024/02/17 03:00:17;;;;;;;52.30;27.10;;;;;;;-128.00;-1.00;-1.00;102405;1264;1004683;-86
2024/02/17 03:02:43;;;;;;;56.10;27.00;;;;;;;-128.00;-1.00;-1.00;102532;1259;1004731;-79
2024/02/17 03:05:10;;;;;;;48.50;25.80;;;;;;;-128.00;-1.00;-1.00;102357;1260;1004154;-79
2024/02/17 03:07:37;;;;;;;42.20;25.70;;;;;;;-128.00;-1.00;-1.00;102334;1260;1004351;-86
2024/02/17 03:10:04;;;;;;;46.70;25.20;;;;;;;-128.00;-1.00;-1.00;105116;1259;1005057;-80
2024/02/17 03:12:30;;;;;;;44.40;26.80;;;;;;;-128.00;-1.00;-1.00;102374;1263;1006372;-85
2024/02/17 03:14:58;;;;;;;62.60;32.20;;;;;;;-128.00;-1.00;-1.00;102560;1259;1003774;-80
2024/02/17 03:17:25;;;;;;;63.50;32.60;;;;;;;-128.00;-1.00;-1.00;102538;1259;1005304;-80
2024/02/17 03:19:52;;;;;;;52.50;29.60;;;;;;;-128.00;-1.00;-1.00;102449;1259;1005579;-86
2024/02/17 03:22:19;;;;;;;63.20;35.00;;;;;;;-128.00;-1.00;-1.00;102531;1263;1005153;-85
2024/02/17 03:24:46;;;;;;;60.10;33.50;;;;;;;-128.00;-1.00;-1.00;102527;1265;1005034;-86
2024/02/17 03:27:12;;;;;;;54.90;31.00;;;;;;;-128.00;-1.00;-1.00;102536;1259;1004007;-86
2024/02/17 03:29:39;;;;;;;41.40;23.70;;;;;;;-128.00;-1.00;-1.00;102525;1260;1005335;-87
2024/02/17 03:32:05;;;;;;;39.30;21.30;;;;;;;-128.00;-1.00;-1.00;102499;1259;1004817;-86
2024/02/17 03:34:32;;;;;;;37.00;19.20;;;;;;;-128.00;-1.00;-1.00;102547;1259;1004326;-80
2024/02/17 03:36:58;;;;;;;41.80;20.90;;;;;;;-128.00;-1.00;-1.00;102530;1260;1004799;-86
2024/02/17 03:39:25;;;;;;;37.50;18.40;;;;;;;-128.00;-1.00;-1.00;102550;1259;1005370;-80
2024/02/17 03:41:52;;;;;;;37.00;21.30;;;;;;;-128.00;-1.00;-1.00;102364;1259;1005340;-80
2024/02/17 03:44:18;;;;;;;41.70;21.70;;;;;;;-128.00;-1.00;-1.00;102412;1259;1004283;-80
2024/02/17 03:46:45;;;;;;;35.00;20.30;;;;;;;-128.00;-1.00;-1.00;102712;1259;1004720;-80
2024/02/17 03:49:12;;;;;;;32.30;16.40;;;;;;;-128.00;-1.00;-1.00;104125;1259;1003934;-79
2024/02/17 03:51:38;;;;;;;37.10;18.70;;;;;;;-128.00;-1.00;-1.00;102342;1260;1003788;-86
2024/02/17 03:54:05;;;;;;;31.60;18.00;;;;;;;-128.00;-1.00;-1.00;102360;1259;1004846;-80
2024/02/17 03:56:31;;;;;;;23.90;15.30;;;;;;;-128.00;-1.00;-1.00;102391;1266;1004145;-80
2024/02/17 03:58:58;;;;;;;46.70;26.30;;;;;;;-128.00;-1.00;-1.00;102494;1264;1004053;-79
2024/02/17 04:01:26;;;;;;;37.50;22.70;;;;;;;-128.00;-1.00;-1.00;102408;1266;1004506;-85
2024/02/17 04:03:53;;;;;;;35.00;19.50;;;;;;;-128.00;-1.00;-1.00;102368;1259;1059491;-86
2024/02/17 04:06:21;;;;;;;36.60;20.30;;;;;;;-128.00;-1.00;-1.00;102540;1263;1005302;-86
2024/02/17 04:08:47;;;;;;;43.30;21.30;;;;;;;-128.00;-1.00;-1.00;102630;1263;1005452;-79
2024/02/17 04:11:14;;;;;;;36.60;22.00;;;;;;;-128.00;-1.00;-1.00;102527;1263;1004378;-81
2024/02/17 04:13:40;;;;;;;35.00;19.70;;;;;;;-128.00;-1.00;-1.00;102472;1259;1004378;-79
2024/02/17 04:16:07;;;;;;;27.90;16.90;;;;;;;-128.00;-1.00;-1.00;102566;1259;1004894;-79
2024/02/17 04:18:33;;;;;;;24.80;15.20;;;;;;;-128.00;-1.00;-1.00;102550;1260;1005465;-86
2024/02/17 04:21:00;;;;;;;30.80;18.50;;;;;;;-128.00;-1.00;-1.00;102565;1259;1005096;-79
2024/02/17 04:23:26;;;;;;;32.60;18.10;;;;;;;-128.00;-1.00;-1.00;102131;1260;1005086;-86
2024/02/17 04:25:53;;;;;;;29.90;16.70;;;;;;;-128.00;-1.00;-1.00;102518;1260;1004585;-80
2024/02/17 04:28:19;;;;;;;27.90;15.50;;;;;;;-128.00;-1.00;-1.00;102568;1259;1003996;-86
2024/02/17 04:30:46;;;;;;;31.20;15.50;;;;;;;-128.00;-1.00;-1.00;102569;1263;1005242;-79
2024/02/17 04:33:12;;;;;;;28.60;17.90;;;;;;;-128.00;-1.00;-1.00;102408;1264;1004137;-82
2024/02/17 04:35:39;;;;;;;25.60;16.80;;;;;;;-128.00;-1.00;-1.00;102113;1263;1004685;-79
2024/02/17 04:38:05;;;;;;;31.40;16.90;;;;;;;-128.00;-1.00;-1.00;102513;1263;1004250;-86
2024/02/17 04:40:32;;;;;;;28.80;18.20;;;;;;;-128.00;-1.00;-1.00;102446;1259;1003621;-86
2024/02/17 04:42:58;;;;;;;33.90;16.80;;;;;;;-128.00;-1.00;-1.00;102535;1263;1004510;-86
2024/02/17 04:45:25;;;;;;;24.60;14.90;;;;;;;-128.00;-1.00;-1.00;102547;1260;1005731;-86
2024/02/17 04:47:52;;;;;;;27.20;15.30;;;;;;;-128.00;-1.00;-1.00;102508;1263;1004390;-86
2024/02/17 04:50:18;;;;;;;21.20;13.60;;;;;;;-128.00;-1.00;-1.00;102535;1259;1004492;-79
2024/02/17 04:52:45;;;;;;;28.30;15.10;;;;;;;-128.00;-1.00;-1.00;102408;1263;1004532;-79
2024/02/17 04:55:11;;;;;;;31.90;16.40;;;;;;;-128.00;-1.00;-1.00;102553;1259;1004932;-80
2024/02/17 04:57:38;;;;;;;27.10;15.70;;;;;;;-128.00;-1.00;-1.00;102626;1259;1004760;-86
2024/02/17 05:00:06;;;;;;;33.50;18.80;;;;;;;-128.00;-1.00;-1.00;102568;1259;1006048;-79
2024/02/17 05:02:35;;;;;;;40.60;20.80;;;;;;;-128.00;-1.00;-1.00;102673;1263;1004663;-86
2024/02/17 05:05:03;;;;;;;47.40;27.20;;;;;;;-128.00;-1.00;-1.00;103248;1260;1058861;-80
2024/02/17 05:07:30;;;;;;;37.50;22.20;;;;;;;-128.00;-1.00;-1.00;102370;1259;1004333;-85
2024/02/17 05:09:56;;;;;;;31.80;18.40;;;;;;;-128.00;-1.00;-1.00;102533;1259;1004773;-79
2024/02/17 05:12:23;;;;;;;30.10;17.40;;;;;;;-128.00;-1.00;-1.00;102506;1261;1004269;-80
2024/02/17 05:14:49;;;;;;;27.80;17.30;;;;;;;-128.00;-1.00;-1.00;103473;1259;1005633;-79
2024/02/17 05:17:15;;;;;;;27.00;16.00;;;;;;;-128.00;-1.00;-1.00;102609;1259;1004347;-86
2024/02/17 05:19:42;;;;;;;28.30;17.40;;;;;;;-128.00;-1.00;-1.00;102776;1263;1003628;-79
2024/02/17 05:22:08;;;;;;;27.30;16.10;;;;;;;-128.00;-1.00;-1.00;102510;1264;1004516;-86
2024/02/17 05:24:35;;;;;;;40.00;19.90;;;;;;;-128.00;-1.00;-1.00;102550;1266;1004585;-86
2024/02/17 05:27:02;;;;;;;29.60;17.20;;;;;;;-128.00;-1.00;-1.00;102522;1263;1004132;-80
2024/02/17 05:29:32;;;;;;;31.40;19.50;;;;;;;-128.00;-1.00;-1.00;102442;1266;1003848;-81
2024/02/17 05:31:58;;;;;;;29.60;16.20;;;;;;;-128.00;-1.00;-1.00;102446;1264;1045304;-86
2024/02/17 05:34:25;;;;;;;28.80;17.60;;;;;;;-128.00;-1.00;-1.00;102497;1262;1004057;-86
2024/02/17 05:36:52;;;;;;;33.80;21.10;;;;;;;-128.00;-1.00;-1.00;102465;1259;1004789;-80
2024/02/17 05:39:18;;;;;;;34.50;21.00;;;;;;;-128.00;-1.00;-1.00;102636;1260;1004389;-86
2024/02/17 05:41:45;;;;;;;32.00;18.20;;;;;;;-128.00;-1.00;-1.00;102508;1263;1006069;-86
2024/02/17 05:44:12;;;;;;;34.90;18.00;;;;;;;-128.00;-1.00;-1.00;102666;1259;1003835;-80
2024/02/17 05:46:38;;;;;;;29.80;15.70;;;;;;;-128.00;-1.00;-1.00;102327;1265;1003678;-86
2024/02/17 05:49:05;;;;;;;32.00;17.80;;;;;;;-128.00;-1.00;-1.00;102503;1261;1004791;-80
2024/02/17 05:51:31;;;;;;;37.30;17.20;;;;;;;-128.00;-1.00;-1.00;102507;1265;1004906;-86
2024/02/17 05:53:57;;;;;;;30.60;18.20;;;;;;;-128.00;-1.00;-1.00;102445;1261;1004792;-86
2024/02/17 05:56:24;;;;;;;30.80;17.90;;;;;;;-128.00;-1.00;-1.00;102502;1264;1004705;-86
2024/02/17 05:58:51;;;;;;;31.60;19.30;;;;;;;-128.00;-1.00;-1.00;102520;1261;1004211;-80
2024/02/17 06:01:17;;;;;;;28.60;16.80;;;;;;;-128.00;-1.00;-1.00;102415;1268;1004107;-80
2024/02/17 06:03:43;;;;;;;41.10;19.40;;;;;;;-128.00;-1.00;-1.00;102436;1260;1004881;-79
2024/02/17 06:06:10;;;;;;;34.80;19.80;;;;;;;-128.00;-1.00;-1.00;102556;1263;1004845;-79
2024/02/17 06:08:37;;;;;;;43.50;21.30;;;;;;;-128.00;-1.00;-1.00;102456;1260;1005139;-79
2024/02/17 06:11:04;;;;;;;36.50;20.00;;;;;;;-128.00;-1.00;-1.00;102563;1263;1004613;-79
2024/02/17 06:13:30;;;;;;;31.60;17.50;;;;;;;-128.00;-1.00;-1.00;101981;1264;1004912;-86
2024/02/17 06:15:57;;;;;;;31.80;18.80;;;;;;;-128.00;-1.00;-1.00;102584;1263;1004849;-80
2024/02/17 06:21:19;;;;;;;35.10;19.40;;;;;;;-128.00;-1.00;-1.00;102548;1259;1045158;-79
2024/02/17 06:23:47;;;;;;;34.50;17.20;;;;;;;-128.00;-1.00;-1.00;102443;1265;1048031;-86
2024/02/17 06:26:27;;;;;;;33.80;19.70;;;;;;;-128.00;-1.00;-1.00;102579;1263;1005173;-80
2024/02/17 06:28:55;;;;;;;34.40;19.10;;;;;;;-128.00;-1.00;-1.00;102514;1259;1061310;-80
2024/02/17 06:31:21;;;;;;;29.70;18.60;;;;;;;-128.00;-1.00;-1.00;102422;1260;1004582;-81
2024/02/17 06:33:48;;;;;;;34.00;18.40;;;;;;;-128.00;-1.00;-1.00;102368;1260;1004151;-80
2024/02/17 06:36:15;;;;;;;33.00;19.20;;;;;;;-128.00;-1.00;-1.00;102511;1263;1004069;-79
2024/02/17 06:38:42;;;;;;;28.00;16.30;;;;;;;-128.00;-1.00;-1.00;102525;1259;1004412;-86
2024/02/17 06:41:11;;;;;;;37.60;24.00;;;;;;;-128.00;-1.00;-1.00;102462;1260;1004768;-80
2024/02/17 06:43:38;;;;;;;40.20;26.00;;;;;;;-128.00;-1.00;-1.00;102567;1263;1059073;-86
2024/02/17 06:46:05;;;;;;;35.60;22.60;;;;;;;-128.00;-1.00;-1.00;102622;1260;1003783;-86
2024/02/17 06:48:32;;;;;;;34.60;22.10;;;;;;;-128.00;-1.00;-1.00;103403;1263;1004024;-86
2024/02/17 06:50:58;;;;;;;33.70;21.10;;;;;;;-128.00;-1.00;-1.00;102853;1260;1004218;-80
2024/02/17 06:53:24;;;;;;;43.40;21.80;;;;;;;-128.00;-1.00;-1.00;102815;1260;1004188;-86
2024/02/17 06:55:51;;;;;;;34.50;21.00;;;;;;;-128.00;-1.00;-1.00;102873;1260;1004131;-80
2024/02/17 06:58:17;;;;;;;34.40;20.00;;;;;;;-128.00;-1.00;-1.00;104192;1259;1006100;-85
2024/02/17 07:00:44;;;;;;;31.30;20.50;;;;;;;-128.00;-1.00;-1.00;102961;1260;1004212;-87
2024/02/17 07:03:10;;;;;;;35.10;18.40;;;;;;;-128.00;-1.00;-1.00;102977;1261;1005444;-85
2024/02/17 07:05:38;;;;;;;36.40;22.80;;;;;;;-128.00;-1.00;-1.00;102962;1260;1005185;-85
2024/02/17 07:08:05;;;;;;;36.70;23.30;;;;;;;-128.00;-1.00;-1.00;102955;1264;1003841;-85
2024/02/17 07:10:31;;;;;;;43.50;25.20;;;;;;;-128.00;-1.00;-1.00;102615;1263;1004029;-79
2024/02/17 07:12:58;;;;;;;43.20;25.90;;;;;;;-128.00;-1.00;-1.00;102574;1263;1004105;-80
2024/02/17 07:15:24;;;;;;;40.30;23.80;;;;;;;-128.00;-1.00;-1.00;102582;1260;1004942;-86
2024/02/17 07:17:51;;;;;;;40.80;25.60;;;;;;;-128.00;-1.00;-1.00;102587;1259;1004164;-80
2024/02/17 07:20:17;;;;;;;45.90;25.90;;;;;;;-128.00;-1.00;-1.00;102432;1264;1004372;-80
2024/02/17 07:22:45;;;;;;;46.30;25.70;;;;;;;-128.00;-1.00;-1.00;102442;1267;1004096;-86
2024/02/17 07:25:12;;;;;;;45.20;24.50;;;;;;;-128.00;-1.00;-1.00;102533;1261;1004053;-86
2024/02/17 07:27:39;;;;;;;45.40;27.20;;;;;;;-128.00;-1.00;-1.00;102457;1260;1004055;-79
2024/02/17 07:30:06;;;;;;;44.30;26.90;;;;;;;-128.00;-1.00;-1.00;102395;1259;1004539;-86
2024/02/17 07:32:33;;;;;;;59.80;32.40;;;;;;;-128.00;-1.00;-1.00;102560;1262;1007037;-86
2024/02/17 07:34:59;;;;;;;50.60;28.80;;;;;;;-128.00;-1.00;-1.00;102563;1263;1005203;-86
2024/02/17 07:37:26;;;;;;;57.00;34.20;;;;;;;-128.00;-1.00;-1.00;102565;1260;1004128;-79
2024/02/17 07:39:52;;;;;;;55.60;32.90;;;;;;;-128.00;-1.00;-1.00;101924;1265;1003887;-86
2024/02/17 07:42:18;;;;;;;59.10;38.10;;;;;;;-128.00;-1.00;-1.00;102466;1260;1005604;-85
2024/02/17 07:44:46;;;;;;;67.30;44.90;;;;;;;-128.00;-1.00;-1.00;102525;1263;1004881;-79
2024/02/17 07:47:14;;;;;;;79.30;53.00;;;;;;;-128.00;-1.00;-1.00;102584;1260;1003877;-80
2024/02/17 07:49:41;;;;;;;70.80;45.20;;;;;;;-128.00;-1.00;-1.00;102428;1264;1004730;-86
2024/02/17 07:52:07;;;;;;;52.30;31.20;;;;;;;-128.00;-1.00;-1.00;102545;1263;1004878;-80
2024/02/17 07:54:34;;;;;;;42.00;26.00;;;;;;;-128.00;-1.00;-1.00;102546;1260;1003544;-86
2024/02/17 07:57:00;;;;;;;45.20;26.30;;;;;;;-128.00;-1.00;-1.00;102556;1264;1005065;-79
2024/02/17 07:59:27;;;;;;;40.50;27.60;;;;;;;-128.00;-1.00;-1.00;102401;1263;1004655;-79
2024/02/17 08:01:54;;;;;;;51.90;27.70;;;;;;;-128.00;-1.00;-1.00;101937;1263;1005581;-86
2024/02/17 08:04:20;;;;;;;47.70;29.80;;;;;;;-128.00;-1.00;-1.00;102620;1262;1005619;-86
2024/02/17 08:06:46;;;;;;;55.00;33.20;;;;;;;-128.00;-1.00;-1.00;102681;1263;1003756;-79
2024/02/17 08:09:13;;;;;;;52.90;33.10;;;;;;;-128.00;-1.00;-1.00;102422;1261;1003965;-86
2024/02/17 08:11:40;;;;;;;50.20;35.00;;;;;;;-128.00;-1.00;-1.00;103355;1261;1005019;-80
2024/02/17 08:14:07;;;;;;;57.30;36.20;;;;;;;-128.00;-1.00;-1.00;105184;1260;1004092;-80
2024/02/17 08:16:34;;;;;;;63.40;38.50;;;;;;;-128.00;-1.00;-1.00;105212;1259;1004892;-80
2024/02/17 08:19:00;;;;;;;70.40;42.60;;;;;;;-128.00;-1.00;-1.00;105085;1260;1004779;-80
2024/02/17 08:21:27;;;;;;;60.10;38.80;;;;;;;-128.00;-1.00;-1.00;105087;1260;1004867;-80
2024/02/17 08:23:53;;;;;;;52.20;32.20;;;;;;;-128.00;-1.00;-1.00;104000;1262;1004409;-80
2024/02/17 08:26:21;;;;;;;59.80;34.50;;;;;;;-128.00;-1.00;-1.00;102552;1263;1005369;-80
2024/02/17 08:28:48;;;;;;;51.90;30.70;;;;;;;-128.00;-1.00;-1.00;102417;1264;1004796;-86
2024/02/17 08:31:14;;;;;;;47.80;30.50;;;;;;;-128.00;-1.00;-1.00;102360;1260;1004286;-86
2024/02/17 08:33:41;;;;;;;57.00;30.90;;;;;;;-128.00;-1.00;-1.00;102525;1260;1004856;-80
2024/02/17 08:36:07;;;;;;;53.40;29.50;;;;;;;-128.00;-1.00;-1.00;102470;1267;1003979;-86
2024/02/17 08:38:34;;;;;;;46.00;28.60;;;;;;;-128.00;-1.00;-1.00;103681;1263;1004534;-85
2024/02/17 08:41:03;;;;;;;47.30;29.20;;;;;;;-128.00;-1.00;-1.00;102540;1261;1004744;-79
2024/02/17 08:43:30;;;;;;;40.90;24.90;;;;;;;-128.00;-1.00;-1.00;102549;1264;1058878;-79
2024/02/17 08:45:56;;;;;;;40.80;24.00;;;;;;;-128.00;-1.00;-1.00;102317;1260;1005195;-85
2024/02/17 08:48:23;;;;;;;29.60;15.70;;;;;;;-128.00;-1.00;-1.00;102591;1261;1005578;-86
2024/02/17 08:50:50;;;;;;;30.30;16.60;;;;;;;-128.00;-1.00;-1.00;102546;1262;1004759;-79
2024/02/17 08:53:18;;;;;;;28.50;15.30;;;;;;;-128.00;-1.00;-1.00;102363;1260;1005697;-85
2024/02/17 08:55:45;;;;;;;32.10;15.70;;;;;;;-128.00;-1.00;-1.00;103526;1261;1004574;-79
2024/02/17 08:58:11;;;;;;;21.80;14.60;;;;;;;-128.00;-1.00;-1.00;102395;1264;1004607;-86
2024/02/17 09:00:38;;;;;;;21.20;13.20;;;;;;;-128.00;-1.00;-1.00;102523;1260;1004172;-85
2024/02/17 09:03:05;;;;;;;21.30;11.30;;;;;;;-128.00;-1.00;-1.00;102418;1261;1005506;-86
2024/02/17 09:05:32;;;;;;;15.90;10.30;;;;;;;-128.00;-1.00;-1.00;102555;1260;1004606;-79
2024/02/17 09:07:58;;;;;;;12.40;7.50;;;;;;;-128.00;-1.00;-1.00;102346;1260;1005342;-85
2024/02/17 09:10:25;;;;;;;12.50;7.60;;;;;;;-128.00;-1.00;-1.00;102538;1260;1004587;-85
2024/02/17 09:12:51;;;;;;;14.50;8.50;;;;;;;-128.00;-1.00;-1.00;102441;1260;1003869;-86
2024/02/17 09:15:18;;;;;;;14.10;8.10;;;;;;;-128.00;-1.00;-1.00;102553;1260;1004273;-85
2024/02/17 09:17:46;;;;;;;12.90;7.60;;;;;;;-128.00;-1.00;-1.00;102563;1261;1003490;-79
2024/02/17 09:20:14;;;;;;;13.80;9.30;;;;;;;-128.00;-1.00;-1.00;102459;1264;1005186;-85
2024/02/17 09:22:41;;;;;;;18.50;15.20;;;;;;;-128.00;-1.00;-1.00;102394;1260;1004789;-79
2024/02/17 09:25:07;;;;;;;13.90;10.50;;;;;;;-128.00;-1.00;-1.00;102320;1261;1003993;-79
2024/02/17 09:27:34;;;;;;;49.70;45.00;;;;;;;-128.00;-1.00;-1.00;102479;1261;1004687;-85
2024/02/17 09:30:00;;;;;;;19.70;14.00;;;;;;;-128.00;-1.00;-1.00;102558;1261;1004339;-80
2024/02/17 09:32:27;;;;;;;24.70;13.80;;;;;;;-128.00;-1.00;-1.00;102539;1259;1004184;-80
2024/02/17 09:34:55;;;;;;;16.00;10.10;;;;;;;-128.00;-1.00;-1.00;102549;1259;1005289;-85
2024/02/17 09:37:23;;;;;;;18.20;9.10;;;;;;;-128.00;-1.00;-1.00;102557;1260;1004742;-85
2024/02/17 09:39:49;;;;;;;19.30;8.90;;;;;;;-128.00;-1.00;-1.00;102347;1264;1004681;-80
2024/02/17 09:42:16;;;;;;;31.20;12.20;;;;;;;-128.00;-1.00;-1.00;102414;1261;1004145;-80
2024/02/17 09:44:43;;;;;;;29.50;12.30;;;;;;;-128.00;-1.00;-1.00;102557;1263;1003948;-85
2024/02/17 09:47:09;;;;;;;18.50;11.00;;;;;;;-128.00;-1.00;-1.00;102318;1261;1005260;-79
2024/02/17 09:49:36;;;;;;;19.70;11.20;;;;;;;-128.00;-1.00;-1.00;102586;1261;1005172;-80
2024/02/17 09:52:03;;;;;;;14.10;7.30;;;;;;;-128.00;-1.00;-1.00;102376;1260;1004588;-80
2024/02/17 09:54:29;;;;;;;16.00;10.60;;;;;;;-128.00;-1.00;-1.00;102205;1261;1004479;-79
2024/02/17 09:56:56;;;;;;;15.50;8.90;;;;;;;-128.00;-1.00;-1.00;102337;1261;1004222;-80
2024/02/17 09:59:22;;;;;;;19.50;11.80;;;;;;;-128.00;-1.00;-1.00;102376;1264;1003668;-79
2024/02/17 10:01:50;;;;;;;20.50;10.90;;;;;;;-128.00;-1.00;-1.00;102526;1260;1004708;-86
2024/02/17 10:04:17;;;;;;;21.30;12.10;;;;;;;-128.00;-1.00;-1.00;102524;1260;1005075;-80
2024/02/17 10:06:44;;;;;;;15.10;9.90;;;;;;;-128.00;-1.00;-1.00;102588;1261;1005117;-79
2024/02/17 10:09:19;;;;;;;17.20;10.30;;;;;;;-128.00;-1.00;-1.00;102551;1259;1004771;-79
2024/02/17 10:11:45;;;;;;;17.20;10.20;;;;;;;-128.00;-1.00;-1.00;105165;1260;1059216;-86
2024/02/17 10:14:15;;;;;;;18.10;10.30;;;;;;;-128.00;-1.00;-1.00;102610;1260;1003921;-85
2024/02/17 10:16:41;;;;;;;22.90;11.70;;;;;;;-128.00;-1.00;-1.00;102519;1260;1047852;-85
2024/02/17 10:19:08;;;;;;;21.60;11.00;;;;;;;-128.00;-1.00;-1.00;102534;1261;1004668;-79
2024/02/17 10:21:38;;;;;;;18.50;9.60;;;;;;;-128.00;-1.00;-1.00;102492;1259;1005005;-79
2024/02/17 10:24:05;;;;;;;20.50;11.30;;;;;;;-128.00;-1.00;-1.00;102583;1263;1061817;-79
2024/02/17 10:26:32;;;;;;;17.40;10.60;;;;;;;-128.00;-1.00;-1.00;102369;1260;1007150;-79
2024/02/17 10:28:59;;;;;;;17.20;11.60;;;;;;;-128.00;-1.00;-1.00;102749;1260;1003979;-85
2024/02/17 10:31:28;;;;;;;22.70;13.80;;;;;;;-128.00;-1.00;-1.00;102630;1261;1004063;-79
2024/02/17 10:33:55;;;;;;;24.70;14.60;;;;;;;-128.00;-1.00;-1.00;102465;1259;1057978;-85
2024/02/17 10:36:22;;;;;;;18.50;10.80;;;;;;;-128.00;-1.00;-1.00;102426;1260;1004177;-79
2024/02/17 10:38:50;;;;;;;18.00;11.00;;;;;;;-128.00;-1.00;-1.00;102612;1260;1005301;-85
2024/02/17 10:41:18;;;;;;;20.60;12.70;;;;;;;-128.00;-1.00;-1.00;102619;1260;1005287;-79
2024/02/17 10:43:47;;;;;;;22.50;13.00;;;;;;;-128.00;-1.00;-1.00;102552;1263;1004602;-85
2024/02/17 10:46:26;;;;;;;21.00;11.90;;;;;;;-128.00;-1.00;-1.00;102597;1260;1060542;-81
2024/02/17 10:49:11;;;;;;;18.40;11.20;;;;;;;-128.00;-1.00;-1.00;102440;1266;1060954;-79
2024/02/17 10:51:41;;;;;;;17.30;10.50;;;;;;;-128.00;-1.00;-1.00;102397;1265;1045127;-85
2024/02/17 10:54:07;;;;;;;20.80;12.90;;;;;;;-128.00;-1.00;-1.00;102876;1264;1046853;-79
2024/02/17 10:56:34;;;;;;;32.70;17.70;;;;;;;-128.00;-1.00;-1.00;102432;1262;1004455;-85
2024/02/17 10:59:00;;;;;;;21.60;13.00;;;;;;;-128.00;-1.00;-1.00;102604;1260;1004383;-85
2024/02/17 11:01:29;;;;;;;22.70;13.00;;;;;;;-128.00;-1.00;-1.00;102335;1261;1003896;-79
2024/02/17 11:03:56;;;;;;;28.00;14.90;;;;;;;-128.00;-1.00;-1.00;102183;1268;1004736;-86